Time;durP1;ratioP1;P1;durP2;ratioP2;P2;SDS_P1;SDS_P2;PMS_P1;PMS_P2;Temp;Humidity;BMP_temperature;BMP_pressure;BME280_temperature;BME280_humidity;BME280_pressure;Samples;Min_cycle;Max_cycle;Signal;HPM_P1;HPM_P2
2022/08/06 00:01:35;;;;;;;1.08;0.65;;;23.00;66.50;;;;;;5092572;28;20024;-85
2022/08/06 00:04:01;;;;;;;2.88;0.68;;;22.90;66.40;;;;;;5093337;28;20039;-86
2022/08/06 00:06:26;;;;;;;1.90;0.70;;;22.90;66.50;;;;;;5093212;28;20141;-85
2022/08/06 00:08:52;;;;;;;3.30;0.90;;;22.90;66.50;;;;;;5092411;28;20453;-86
2022/08/06 00:11:18;;;;;;;0.90;0.68;;;23.00;66.20;;;;;;5097598;28;20024;-85
2022/08/06 00:13:44;;;;;;;3.45;0.93;;;23.00;66.20;;;;;;5096189;28;20036;-86
2022/08/06 00:16:09;;;;;;;2.13;0.70;;;23.00;66.40;;;;;;5098015;28;20366;-85
2022/08/06 00:18:35;;;;;;;2.10;0.75;;;22.90;66.20;;;;;;5096141;28;20389;-85
2022/08/06 00:21:01;;;;;;;1.13;0.60;;;22.90;66.40;;;;;;5097178;28;20028;-85
2022/08/06 00:23:26;;;;;;;1.95;0.70;;;22.90;66.30;;;;;;5096673;28;20042;-85
2022/08/06 00:25:53;;;;;;;0.70;0.63;;;22.90;66.40;;;;;;5096409;28;20560;-85
2022/08/06 00:28:24;;;;;;;1.58;0.73;;;22.90;66.40;;;;;;5096613;28;20020;-85
2022/08/06 00:30:50;;;;;;;0.85;0.47;;;22.90;66.30;;;;;;5095793;28;20119;-84
2022/08/06 00:33:16;;;;;;;1.45;0.90;;;22.80;66.40;;;;;;5096502;28;20506;-85
2022/08/06 00:35:42;;;;;;;3.17;0.60;;;22.80;66.50;;;;;;5095937;28;20047;-84
2022/08/06 00:38:08;;;;;;;2.30;0.70;;;22.80;66.50;;;;;;5096722;28;20028;-86
2022/08/06 00:40:33;;;;;;;2.58;0.90;;;22.80;66.50;;;;;;5096063;28;20032;-83
2022/08/06 00:43:02;;;;;;;2.05;0.60;;;22.80;66.50;;;;;;5096421;28;20032;-83
2022/08/06 00:45:31;;;;;;;2.92;0.80;;;22.70;66.50;;;;;;5096045;28;20051;-83
2022/08/06 00:47:57;;;;;;;4.93;1.10;;;22.70;66.60;;;;;;5096142;28;20461;-84
2022/08/06 00:50:23;;;;;;;1.17;0.80;;;22.80;66.70;;;;;;5095893;28;20035;-83
2022/08/06 00:52:48;;;;;;;0.90;0.50;;;22.70;66.70;;;;;;5095685;28;20038;-84
2022/08/06 00:55:14;;;;;;;2.85;0.90;;;22.70;66.70;;;;;;5096203;28;20036;-83
2022/08/06 00:57:39;;;;;;;2.92;0.75;;;22.70;66.50;;;;;;5095681;28;20020;-84
2022/08/06 01:00:07;;;;;;;1.60;0.88;;;22.80;66.40;;;;;;5095754;28;20063;-84
2022/08/06 01:02:33;;;;;;;1.00;0.70;;;22.70;66.20;;;;;;5095796;28;20028;-85
2022/08/06 01:04:59;;;;;;;0.82;0.65;;;22.70;66.10;;;;;;5096021;28;20024;-86
2022/08/06 01:07:25;;;;;;;2.45;0.60;;;22.70;66.00;;;;;;5097024;28;20032;-87
2022/08/06 01:09:50;;;;;;;0.88;0.65;;;22.70;65.80;;;;;;5095056;28;20020;-86
2022/08/06 01:12:16;;;;;;;1.70;0.73;;;22.70;65.80;;;;;;5095706;28;20020;-86
2022/08/06 01:14:43;;;;;;;1.17;0.52;;;22.70;65.90;;;;;;5094910;28;20032;-86
2022/08/06 01:17:23;;;;;;;2.03;0.60;;;22.70;65.90;;;;;;5095516;28;20028;-86
2022/08/06 01:20:01;;;;;;;3.00;0.70;;;22.60;65.80;;;;;;5095332;28;20161;-85
2022/08/06 01:22:51;;;;;;;1.63;0.60;;;22.60;66.00;;;;;;5095189;28;20027;-86
2022/08/06 01:25:36;;;;;;;2.63;0.80;;;22.60;65.80;;;;;;5096715;28;20066;-86
2022/08/06 01:28:06;;;;;;;3.22;0.70;;;22.50;65.90;;;;;;5096893;28;20032;-87
2022/08/06 01:30:42;;;;;;;2.22;0.70;;;22.50;66.00;;;;;;5095587;28;20051;-87
2022/08/06 01:33:14;;;;;;;3.78;0.95;;;22.50;66.20;;;;;;5095618;28;20029;-86
2022/08/06 01:35:46;;;;;;;1.88;0.90;;;22.40;66.40;;;;;;5095667;28;20048;-87
2022/08/06 01:38:20;;;;;;;1.23;0.80;;;22.30;66.70;;;;;;5095865;28;20115;-87
2022/08/06 01:40:47;;;;;;;1.17;0.75;;;22.30;66.70;;;;;;5096134;28;20028;-84
2022/08/06 01:43:16;;;;;;;0.80;0.70;;;22.30;66.90;;;;;;5095564;28;20031;-86
2022/08/06 01:45:43;;;;;;;2.20;0.73;;;22.30;67.10;;;;;;5094988;28;20021;-86
2022/08/06 01:48:14;;;;;;;2.10;0.70;;;22.20;67.20;;;;;;5096410;28;20035;-86
2022/08/06 01:50:45;;;;;;;2.08;0.80;;;22.20;67.20;;;;;;5094757;28;20035;-86
2022/08/06 01:53:12;;;;;;;;;;;22.20;67.30;;;;;;5095682;28;20100;-85
2022/08/06 01:55:44;;;;;;;1.50;0.75;;;22.20;67.50;;;;;;5094596;28;19904;-85
2022/08/06 01:58:12;;;;;;;1.60;0.98;;;22.20;67.50;;;;;;5095357;28;20131;-85
2022/08/06 02:00:44;;;;;;;1.25;0.70;;;22.20;67.90;;;;;;5095929;28;20028;-85
2022/08/06 02:03:24;;;;;;;2.60;0.70;;;22.20;67.90;;;;;;5095149;28;20039;-84
2022/08/06 02:05:53;;;;;;;2.45;0.60;;;22.10;68.30;;;;;;5094536;28;20119;-84
2022/08/06 02:08:22;;;;;;;2.20;0.70;;;22.10;68.50;;;;;;5094461;28;20063;-84
2022/08/06 02:10:50;;;;;;;3.63;0.90;;;22.10;68.80;;;;;;5095368;28;20049;-84
2022/08/06 02:13:19;;;;;;;1.25;0.70;;;22.00;69.80;;;;;;5095921;28;20564;-84
2022/08/06 02:15:45;;;;;;;3.28;0.85;;;21.90;69.30;;;;;;5095212;28;20039;-85
2022/08/06 02:18:14;;;;;;;3.97;0.80;;;22.00;69.50;;;;;;5094881;28;20024;-85
2022/08/06 02:20:47;;;;;;;0.70;0.63;;;21.90;70.00;;;;;;5094165;28;20021;-85
2022/08/06 02:23:17;;;;;;;4.38;0.80;;;21.90;70.30;;;;;;5094886;28;20039;-85
2022/08/06 02:25:45;;;;;;;1.67;0.70;;;21.80;70.40;;;;;;5094836;28;20036;-85
2022/08/06 02:28:14;;;;;;;1.10;0.80;;;21.80;70.50;;;;;;5094646;28;20024;-86
2022/08/06 02:30:43;;;;;;;2.38;0.90;;;21.80;70.80;;;;;;5094043;28;20457;-86
2022/08/06 02:33:10;;;;;;;2.53;0.80;;;21.80;71.00;;;;;;5093260;28;20066;-86
2022/08/06 02:35:45;;;;;;;1.23;0.80;;;21.70;71.50;;;;;;5094112;28;20052;-86
2022/08/06 02:38:25;;;;;;;0.60;0.60;;;21.50;71.90;;;;;;5094811;28;20020;-85
2022/08/06 02:40:58;;;;;;;1.45;0.70;;;21.60;72.20;;;;;;5093749;28;20051;-85
2022/08/06 02:43:35;;;;;;;2.95;1.00;;;21.50;72.40;;;;;;5094786;28;20027;-85
2022/08/06 02:46:21;;;;;;;2.03;1.00;;;21.50;72.50;;;;;;5093727;28;20035;-85
2022/08/06 02:49:10;;;;;;;2.67;0.75;;;21.50;72.70;;;;;;5095112;28;20032;-85
2022/08/06 02:51:44;;;;;;;1.77;0.90;;;21.40;72.70;;;;;;5080618;28;20031;-86
2022/08/06 02:54:19;;;;;;;2.03;1.00;;;21.40;73.00;;;;;;5094894;28;20044;-87
2022/08/06 02:56:48;;;;;;;1.17;0.80;;;21.40;73.40;;;;;;5093848;28;20072;-85
2022/08/06 02:59:21;;;;;;;1.23;0.80;;;21.20;73.90;;;;;;5093807;28;20039;-85
2022/08/06 03:01:54;;;;;;;1.05;0.85;;;21.20;74.40;;;;;;5093572;28;20084;-85
2022/08/06 03:04:23;;;;;;;5.10;0.93;;;21.10;74.50;;;;;;5094183;28;20047;-86
2022/08/06 03:06:49;;;;;;;1.30;0.90;;;21.20;74.70;;;;;;5094409;28;20024;-85
2022/08/06 03:09:17;;;;;;;3.58;1.20;;;21.20;74.90;;;;;;5093977;28;20024;-83
2022/08/06 03:11:45;;;;;;;2.38;1.10;;;21.10;75.20;;;;;;5092831;28;20492;-83
2022/08/06 03:14:14;;;;;;;3.78;0.95;;;21.10;75.50;;;;;;5092973;28;20068;-82
2022/08/06 03:16:41;;;;;;;3.53;1.20;;;21.10;75.80;;;;;;5093211;28;20494;-82
2022/08/06 03:19:09;;;;;;;4.25;1.05;;;21.10;76.10;;;;;;5093458;28;20078;-83
2022/08/06 03:21:35;;;;;;;3.35;1.00;;;21.10;76.30;;;;;;5093169;28;20031;-83
2022/08/06 03:24:02;;;;;;;2.50;0.98;;;21.00;76.60;;;;;;5092350;28;20055;-83
2022/08/06 03:26:29;;;;;;;1.65;0.90;;;21.00;76.80;;;;;;5093039;28;20105;-83
2022/08/06 03:28:56;;;;;;;4.63;1.20;;;21.00;76.80;;;;;;5093378;28;20028;-83
2022/08/06 03:31:23;;;;;;;3.35;0.98;;;21.00;76.90;;;;;;5092998;28;20024;-83
2022/08/06 03:33:50;;;;;;;1.10;1.00;;;21.00;77.00;;;;;;5092368;28;20060;-83
2022/08/06 03:36:17;;;;;;;2.60;1.15;;;21.00;77.10;;;;;;5093593;28;20032;-86
2022/08/06 03:38:57;;;;;;;1.63;1.10;;;21.00;77.30;;;;;;5092870;28;20083;-85
2022/08/06 03:41:32;;;;;;;2.10;1.05;;;20.90;77.40;;;;;;5094060;28;20104;-84
2022/08/06 03:43:57;;;;;;;2.25;1.27;;;20.90;77.60;;;;;;5092098;28;20024;-85
2022/08/06 03:46:29;;;;;;;3.83;1.10;;;20.80;77.40;;;;;;5092779;28;20461;-85
2022/08/06 03:48:58;;;;;;;1.23;0.95;;;20.80;77.40;;;;;;5092636;28;20024;-85
2022/08/06 03:51:28;;;;;;;4.78;1.33;;;20.80;77.50;;;;;;5094124;28;20115;-85
2022/08/06 03:53:56;;;;;;;3.53;1.08;;;20.70;77.40;;;;;;5092909;28;20040;-85
2022/08/06 03:56:26;;;;;;;3.42;1.10;;;20.70;77.50;;;;;;5094379;28;20031;-85
2022/08/06 03:58:54;;;;;;;2.10;1.00;;;20.60;77.70;;;;;;5097132;28;20095;-85
2022/08/06 04:01:26;;;;;;;2.55;1.23;;;20.60;77.70;;;;;;5096258;28;20031;-84
2022/08/06 04:03:52;;;;;;;2.90;1.20;;;20.60;77.90;;;;;;5094034;28;20028;-84
2022/08/06 04:06:20;;;;;;;1.98;1.00;;;20.60;77.90;;;;;;5093752;28;20024;-85
2022/08/06 04:08:46;;;;;;;2.38;1.00;;;20.60;78.80;;;;;;5094002;28;20024;-84
2022/08/06 04:11:12;;;;;;;3.33;1.08;;;20.40;78.10;;;;;;5094593;28;20096;-85
2022/08/06 04:13:40;;;;;;;1.75;0.95;;;20.40;78.10;;;;;;5093024;28;20028;-83
2022/08/06 04:16:06;;;;;;;1.48;1.15;;;20.30;77.90;;;;;;5092369;28;20133;-83
2022/08/06 04:18:37;;;;;;;2.15;1.10;;;20.30;78.00;;;;;;5092860;28;20062;-82
2022/08/06 04:21:08;;;;;;;4.85;1.10;;;20.30;78.10;;;;;;5092324;28;20028;-81
2022/08/06 04:23:34;;;;;;;3.22;1.10;;;20.20;77.90;;;;;;5092703;28;20110;-81
2022/08/06 04:26:03;;;;;;;2.70;1.15;;;20.20;77.90;;;;;;5092383;28;20024;-81
2022/08/06 04:28:30;;;;;;;4.15;1.20;;;20.20;77.90;;;;;;5092981;28;20051;-81
2022/08/06 04:30:58;;;;;;;3.22;1.15;;;20.20;78.00;;;;;;5092258;28;20025;-84
2022/08/06 04:33:25;;;;;;;2.53;1.05;;;20.20;78.10;;;;;;5094144;28;20472;-83
2022/08/06 04:35:51;;;;;;;1.75;1.10;;;20.10;78.20;;;;;;5091889;28;20066;-85
2022/08/06 04:38:20;;;;;;;2.55;1.25;;;20.10;78.10;;;;;;5092987;28;20493;-84
2022/08/06 04:40:46;;;;;;;2.83;1.02;;;20.10;78.20;;;;;;5092259;28;20028;-85
2022/08/06 04:43:12;;;;;;;2.05;1.10;;;20.00;78.30;;;;;;5092545;28;20031;-85
2022/08/06 04:45:40;;;;;;;4.65;1.20;;;20.00;78.10;;;;;;5092310;28;20032;-85
2022/08/06 04:48:09;;;;;;;3.63;1.38;;;20.00;78.10;;;;;;5093271;28;20016;-85
2022/08/06 04:50:36;;;;;;;1.55;1.00;;;19.90;77.90;;;;;;5092611;28;20028;-85
2022/08/06 04:53:11;;;;;;;2.60;1.02;;;19.90;77.80;;;;;;5092085;28;20064;-85
2022/08/06 04:55:37;;;;;;;3.30;1.10;;;19.90;77.60;;;;;;5092558;28;20025;-84
2022/08/06 04:58:05;;;;;;;3.08;0.98;;;19.90;77.70;;;;;;5096431;28;20020;-84
2022/08/06 05:00:32;;;;;;;2.63;0.88;;;19.80;77.40;;;;;;5096434;28;20454;-84
2022/08/06 05:02:58;;;;;;;2.95;0.93;;;19.80;77.30;;;;;;5095804;28;20032;-84
2022/08/06 05:05:24;;;;;;;5.38;1.00;;;19.80;76.90;;;;;;5096100;28;20165;-84
2022/08/06 05:07:53;;;;;;;1.55;1.00;;;19.70;77.00;;;;;;5096786;28;20028;-84
2022/08/06 05:10:22;;;;;;;3.13;0.88;;;19.60;77.00;;;;;;5096733;28;20025;-83
2022/08/06 05:12:53;;;;;;;2.40;0.80;;;19.60;76.90;;;;;;5095859;28;20028;-84
2022/08/06 05:15:33;;;;;;;3.33;0.80;;;19.50;76.60;;;;;;5096024;28;20036;-84
2022/08/06 05:18:15;;;;;;;2.05;1.23;;;19.40;76.90;;;;;;5095476;28;20028;-85
2022/08/06 05:20:46;;;;;;;1.83;1.00;;;19.30;76.90;;;;;;5096243;28;20024;-85
2022/08/06 05:23:15;;;;;;;2.58;1.00;;;19.30;76.80;;;;;;5095600;28;20117;-85
2022/08/06 05:25:40;;;;;;;2.25;0.80;;;19.40;76.70;;;;;;5095694;28;20085;-85
2022/08/06 05:28:07;;;;;;;2.13;0.93;;;19.40;76.50;;;;;;5096526;28;20578;-84
2022/08/06 05:30:33;;;;;;;1.67;0.77;;;19.40;76.50;;;;;;5095576;28;20021;-85
2022/08/06 05:32:59;;;;;;;3.78;0.88;;;19.40;76.50;;;;;;5094956;28;20081;-86
2022/08/06 05:35:25;;;;;;;1.85;0.60;;;19.40;76.50;;;;;;5095413;28;20047;-85
2022/08/06 05:37:50;;;;;;;1.65;0.80;;;19.40;76.50;;;;;;5096204;28;20085;-84
2022/08/06 05:40:16;;;;;;;3.70;0.80;;;19.30;76.80;;;;;;5095810;28;20028;-85
2022/08/06 05:42:42;;;;;;;1.52;0.85;;;19.30;77.30;;;;;;5095757;28;20035;-86
2022/08/06 05:45:11;;;;;;;1.85;1.30;;;19.40;76.50;;;;;;5095029;28;20032;-86
2022/08/06 05:47:40;;;;;;;3.75;0.98;;;19.40;76.60;;;;;;5095575;28;20039;-83
2022/08/06 05:50:17;;;;;;;1.23;0.95;;;19.40;76.60;;;;;;5094837;28;20091;-83
2022/08/06 05:52:49;;;;;;;2.53;0.80;;;19.40;76.50;;;;;;5095057;28;20035;-83
2022/08/06 05:55:21;;;;;;;1.73;0.80;;;19.40;76.50;;;;;;5095022;28;20181;-82
2022/08/06 05:57:57;;;;;;;2.72;1.00;;;19.50;76.10;;;;;;5094871;28;20028;-82
2022/08/06 06:00:26;;;;;;;5.32;0.73;;;19.50;76.10;;;;;;5096244;28;20031;-81
2022/08/06 06:02:55;;;;;;;2.47;0.80;;;19.50;76.00;;;;;;5094616;28;20028;-81
2022/08/06 06:05:22;;;;;;;5.07;0.77;;;19.50;75.90;;;;;;5094878;28;20024;-82
2022/08/06 06:07:49;;;;;;;3.17;0.88;;;19.50;75.80;;;;;;5094284;28;20107;-82
2022/08/06 06:10:16;;;;;;;3.58;0.85;;;19.50;75.90;;;;;;5094322;28;20032;-83
2022/08/06 06:12:43;;;;;;;2.08;0.80;;;19.60;75.70;;;;;;5094680;28;20089;-83
2022/08/06 06:15:11;;;;;;;2.72;0.80;;;19.60;75.60;;;;;;5094320;28;20052;-83
2022/08/06 06:17:57;;;;;;;3.20;1.27;;;19.60;75.70;;;;;;5094747;28;20050;-83
2022/08/06 06:20:54;;;;;;;2.38;0.77;;;19.60;75.70;;;;;;5094675;28;20492;-84
2022/08/06 06:23:54;;;;;;;3.20;0.70;;;19.60;75.50;;;;;;5095519;28;20099;-84
2022/08/06 06:26:58;;;;;;;2.35;0.95;;;19.60;75.50;;;;;;5080982;28;20036;-83
2022/08/06 06:30:09;;;;;;;3.80;0.77;;;19.70;75.30;;;;;;5039363;28;20039;-83
2022/08/06 06:32:57;;;;;;;1.83;0.90;;;19.70;75.30;;;;;;5071260;28;20049;-84
2022/08/06 06:35:53;;;;;;;3.47;1.10;;;19.70;75.10;;;;;;5077632;28;20127;-85
2022/08/06 06:38:34;;;;;;;0.98;0.73;;;19.80;75.30;;;;;;5073736;28;20024;-85
2022/08/06 06:41:21;;;;;;;1.73;0.88;;;19.80;75.20;;;;;;5073528;28;20029;-84
2022/08/06 06:44:14;;;;;;;1.02;0.80;;;19.80;75.20;;;;;;5074867;28;20114;-84
2022/08/06 06:46:51;;;;;;;1.90;0.80;;;19.80;75.30;;;;;;5073628;28;20020;-83
2022/08/06 06:49:24;;;;;;;2.30;0.70;;;19.90;75.30;;;;;;5073280;28;20488;-83
2022/08/06 06:51:55;;;;;;;2.22;0.90;;;19.90;75.50;;;;;;5073325;28;20029;-83
2022/08/06 06:54:43;;;;;;;1.67;0.90;;;19.90;75.50;;;;;;5074356;28;20040;-83
2022/08/06 06:57:12;;;;;;;6.22;1.30;;;20.00;75.60;;;;;;5073860;28;20048;-83
2022/08/06 06:59:43;;;;;;;2.85;1.20;;;20.10;75.50;;;;;;5073412;28;20020;-84
2022/08/06 07:02:19;;;;;;;0.90;0.73;;;20.10;75.30;;;;;;5072970;28;20105;-84
2022/08/06 07:04:47;;;;;;;2.72;0.98;;;20.20;74.90;;;;;;5073350;28;20269;-83
2022/08/06 07:07:14;;;;;;;2.45;1.00;;;20.20;75.10;;;;;;5072566;28;20024;-83
2022/08/06 07:09:41;;;;;;;1.83;0.80;;;20.20;75.00;;;;;;5073081;28;20028;-83
2022/08/06 07:12:09;;;;;;;2.50;1.05;;;20.30;75.20;;;;;;5072754;28;20024;-85
2022/08/06 07:14:37;;;;;;;3.55;1.15;;;20.40;75.10;;;;;;5074040;28;20033;-83
2022/08/06 07:17:05;;;;;;;3.72;1.30;;;20.40;74.80;;;;;;5073618;28;20056;-84
2022/08/06 07:19:31;;;;;;;2.80;1.20;;;20.40;74.50;;;;;;5072517;28;20024;-83
2022/08/06 07:21:58;;;;;;;4.60;2.30;;;20.40;74.60;;;;;;5072676;28;20028;-82
2022/08/06 07:24:26;;;;;;;4.28;0.95;;;20.40;74.60;;;;;;5073016;28;20090;-83
2022/08/06 07:26:53;;;;;;;2.92;1.63;;;20.50;74.40;;;;;;5074150;28;20024;-83
2022/08/06 07:29:20;;;;;;;4.50;1.02;;;20.50;74.10;;;;;;5074066;28;20028;-83
2022/08/06 07:31:47;;;;;;;1.00;0.75;;;20.60;74.10;;;;;;5072800;28;20032;-82
2022/08/06 07:34:14;;;;;;;2.03;0.80;;;20.70;73.80;;;;;;5085135;28;20052;-83
2022/08/06 07:36:54;;;;;;;2.92;1.17;;;20.70;73.80;;;;;;5094229;28;20020;-83
2022/08/06 07:39:34;;;;;;;2.83;1.35;;;20.80;73.50;;;;;;5092023;28;20166;-82
2022/08/06 07:42:06;;;;;;;2.28;1.10;;;20.80;72.90;;;;;;5090805;28;20020;-83
2022/08/06 07:44:37;;;;;;;2.40;1.05;;;20.90;74.60;;;;;;5093137;28;20021;-82
2022/08/06 07:47:04;;;;;;;0.85;0.75;;;20.90;72.50;;;;;;5092713;28;20023;-83
2022/08/06 07:49:37;;;;;;;1.48;0.80;;;21.00;72.60;;;;;;5091959;28;20026;-85
2022/08/06 07:52:04;;;;;;;2.97;0.90;;;21.10;72.00;;;;;;5093114;28;20022;-82
2022/08/06 07:54:31;;;;;;;0.70;0.70;;;21.10;70.70;;;;;;5092655;28;20048;-81
2022/08/06 07:56:57;;;;;;;2.53;1.27;;;21.10;70.00;;;;;;5092147;28;20031;-84
2022/08/06 07:59:24;;;;;;;0.93;0.80;;;21.10;70.00;;;;;;5092872;28;20115;-82
2022/08/06 08:01:51;;;;;;;1.40;1.08;;;21.10;70.60;;;;;;5092366;28;20024;-83
2022/08/06 08:07:06;;;;;;;1.00;0.90;;;21.20;70.60;;;;;;5061699;28;20040;-88
2022/08/06 08:09:35;;;;;;;3.55;0.70;;;21.20;69.30;;;;;;5090960;28;20058;-86
2022/08/06 08:12:01;;;;;;;1.67;0.73;;;21.20;68.80;;;;;;5091420;28;20058;-84
2022/08/06 08:14:28;;;;;;;1.85;0.60;;;21.20;68.00;;;;;;5090898;28;20077;-86
2022/08/06 08:16:54;;;;;;;6.75;0.80;;;21.30;67.60;;;;;;5091558;28;20024;-85
2022/08/06 08:19:24;;;;;;;2.00;0.68;;;21.30;67.70;;;;;;5091293;28;20024;-86
2022/08/06 08:21:51;;;;;;;1.13;0.90;;;21.40;66.10;;;;;;5091744;28;20024;-83
2022/08/06 08:24:17;;;;;;;1.92;0.52;;;21.40;65.90;;;;;;5090784;28;20032;-85
2022/08/06 08:26:43;;;;;;;1.60;0.68;;;21.40;65.70;;;;;;5091693;28;20484;-84
2022/08/06 08:29:09;;;;;;;2.58;0.77;;;21.40;64.90;;;;;;5090865;28;20440;-84
2022/08/06 08:31:35;;;;;;;1.60;0.75;;;21.40;65.00;;;;;;5091685;28;20448;-80
2022/08/06 08:34:01;;;;;;;1.48;0.63;;;21.50;65.00;;;;;;5094897;28;20096;-79
2022/08/06 08:36:27;;;;;;;2.10;0.80;;;21.50;64.80;;;;;;5090210;28;20028;-83
2022/08/06 08:38:56;;;;;;;2.22;0.70;;;21.50;64.40;;;;;;5095026;28;20024;-83
2022/08/06 08:41:26;;;;;;;3.03;0.70;;;21.50;64.30;;;;;;5095181;28;20499;-82
2022/08/06 08:44:05;;;;;;;2.45;0.50;;;21.50;64.00;;;;;;5090786;28;20363;-83
2022/08/06 08:46:39;;;;;;;2.85;0.70;;;21.50;64.10;;;;;;5086743;28;20024;-83
2022/08/06 08:49:07;;;;;;;2.05;0.60;;;21.60;65.50;;;;;;5081838;28;20035;-83
2022/08/06 08:51:36;;;;;;;2.92;0.55;;;21.50;65.90;;;;;;5094598;28;20020;-81
2022/08/06 08:54:05;;;;;;;1.63;0.70;;;21.60;66.30;;;;;;5088580;28;20110;-84
2022/08/06 08:56:32;;;;;;;2.65;0.50;;;21.60;65.60;;;;;;5086004;28;20024;-84
2022/08/06 08:58:59;;;;;;;4.97;0.57;;;21.60;63.40;;;;;;5080080;28;20025;-83
2022/08/06 09:01:25;;;;;;;1.00;0.60;;;21.70;62.40;;;;;;5076317;28;20078;-83
2022/08/06 09:03:51;;;;;;;2.65;0.80;;;21.70;61.90;;;;;;5089450;28;20024;-83
2022/08/06 09:06:17;;;;;;;3.42;0.75;;;21.80;64.00;;;;;;5083356;28;20031;-80
2022/08/06 09:08:46;;;;;;;2.13;0.60;;;21.70;64.40;;;;;;5094534;28;20143;-81
2022/08/06 09:11:12;;;;;;;2.53;0.70;;;21.70;64.70;;;;;;5094948;28;20020;-84
2022/08/06 09:13:38;;;;;;;2.60;0.82;;;21.70;65.00;;;;;;5095047;28;20093;-83
2022/08/06 09:16:04;;;;;;;4.80;0.85;;;21.70;64.80;;;;;;5086693;28;20048;-84
2022/08/06 09:18:29;;;;;;;1.27;0.80;;;21.70;64.70;;;;;;5089504;28;20031;-86
2022/08/06 09:20:55;;;;;;;2.10;0.95;;;21.70;64.30;;;;;;5085157;28;20466;-86
2022/08/06 09:23:21;;;;;;;2.10;0.70;;;21.80;64.50;;;;;;5093127;28;20105;-85
2022/08/06 09:25:52;;;;;;;1.13;0.70;;;21.90;63.80;;;;;;5080660;28;20445;-84
2022/08/06 09:28:40;;;;;;;2.25;0.85;;;21.90;63.40;;;;;;5086610;28;20024;-81
2022/08/06 09:31:11;;;;;;;3.65;0.73;;;21.90;62.90;;;;;;5093863;28;20086;-83
2022/08/06 09:33:52;;;;;;;3.70;0.70;;;21.90;63.20;;;;;;5074331;28;20029;-85
2022/08/06 09:36:18;;;;;;;1.35;0.70;;;22.00;62.50;;;;;;5082871;28;20087;-85
2022/08/06 09:38:47;;;;;;;3.78;0.60;;;22.00;62.40;;;;;;5094186;28;20035;-84
2022/08/06 09:41:13;;;;;;;2.28;0.60;;;22.10;61.00;;;;;;5077967;28;20115;-82
2022/08/06 09:43:39;;;;;;;2.00;0.47;;;22.10;60.00;;;;;;5088861;28;20066;-80
2022/08/06 09:46:06;;;;;;;2.83;0.60;;;22.10;59.60;;;;;;5093940;28;20087;-82
2022/08/06 09:48:32;;;;;;;2.42;0.40;;;22.10;59.50;;;;;;5083427;28;20386;-82
2022/08/06 09:50:57;;;;;;;3.42;0.60;;;22.20;59.70;;;;;;5089682;28;20028;-80
2022/08/06 09:53:24;;;;;;;1.52;0.68;;;22.20;59.10;;;;;;5075815;28;20075;-83
2022/08/06 09:55:56;;;;;;;2.65;0.40;;;22.30;59.00;;;;;;5074471;28;20025;-81
2022/08/06 09:58:34;;;;;;;2.15;0.50;;;22.30;58.80;;;;;;5073504;28;20051;-79
2022/08/06 10:01:21;;;;;;;2.65;0.38;;;22.30;58.30;;;;;;5090161;28;20023;-81
2022/08/06 10:03:48;;;;;;;3.70;0.50;;;22.40;57.30;;;;;;5089886;28;20052;-81
2022/08/06 10:06:20;;;;;;;1.63;0.50;;;22.40;57.50;;;;;;5081413;28;20089;-82
2022/08/06 10:08:50;;;;;;;2.67;0.40;;;22.30;57.40;;;;;;5085987;28;20028;-80
2022/08/06 10:11:32;;;;;;;0.65;0.30;;;22.40;57.50;;;;;;5076958;28;20465;-80
2022/08/06 10:13:57;;;;;;;1.67;0.38;;;22.40;57.80;;;;;;5073716;28;20033;-79
2022/08/06 10:16:29;;;;;;;1.45;0.40;;;22.40;57.40;;;;;;5083098;28;20027;-80
2022/08/06 10:18:57;;;;;;;2.13;0.52;;;22.50;56.80;;;;;;5089516;28;20024;-79
2022/08/06 10:21:26;;;;;;;2.00;0.52;;;22.60;57.10;;;;;;5094848;28;20051;-79
2022/08/06 10:23:54;;;;;;;1.55;0.60;;;22.50;57.00;;;;;;5094369;28;20127;-79
2022/08/06 10:26:27;;;;;;;1.65;0.50;;;22.50;57.50;;;;;;5094722;28;20020;-79
2022/08/06 10:28:53;;;;;;;2.63;0.45;;;22.50;56.70;;;;;;5093928;28;20043;-80
2022/08/06 10:31:20;;;;;;;2.40;0.40;;;22.60;56.60;;;;;;5093044;28;20461;-81
2022/08/06 10:33:46;;;;;;;1.85;0.40;;;22.50;56.30;;;;;;5093370;28;20031;-80
2022/08/06 10:36:15;;;;;;;2.83;0.60;;;22.50;56.40;;;;;;5093655;28;20020;-83
2022/08/06 10:38:45;;;;;;;1.63;0.50;;;22.60;55.60;;;;;;5074654;28;20024;-82
2022/08/06 10:41:12;;;;;;;0.45;0.30;;;22.60;55.60;;;;;;5073553;28;20039;-84
2022/08/06 10:43:39;;;;;;;2.47;0.60;;;22.70;55.60;;;;;;5074933;28;20485;-84
2022/08/06 10:46:07;;;;;;;0.73;0.30;;;22.80;55.60;;;;;;5074782;28;20028;-87
2022/08/06 10:48:35;;;;;;;2.53;0.50;;;22.80;55.20;;;;;;5073726;28;20107;-84
2022/08/06 10:51:02;;;;;;;0.90;0.38;;;22.90;54.90;;;;;;5075483;28;20028;-82
2022/08/06 10:53:30;;;;;;;1.42;0.25;;;22.90;55.00;;;;;;5088886;28;20054;-79
2022/08/06 10:55:59;;;;;;;4.43;0.70;;;22.90;54.80;;;;;;5092390;28;20028;-79
2022/08/06 10:58:25;;;;;;;1.77;0.40;;;22.90;54.90;;;;;;5094095;28;20032;-79
2022/08/06 11:00:51;;;;;;;1.30;0.30;;;23.00;54.60;;;;;;5093579;28;20073;-81
2022/08/06 11:03:48;;;;;;;0.65;0.43;;;23.00;54.60;;;;;;5094028;28;20500;-81
2022/08/06 11:06:44;;;;;;;2.25;0.40;;;23.00;53.80;;;;;;5092611;28;20161;-81
2022/08/06 11:09:42;;;;;;;1.58;0.30;;;22.90;54.00;;;;;;5088249;28;20033;-82
2022/08/06 11:12:41;;;;;;;2.13;0.50;;;23.00;54.20;;;;;;5072935;28;20020;-81
2022/08/06 11:15:08;;;;;;;1.45;0.40;;;23.00;53.80;;;;;;5078438;28;20036;-82
2022/08/06 11:17:46;;;;;;;1.33;0.30;;;23.00;54.00;;;;;;5090958;28;20039;-81
2022/08/06 11:20:31;;;;;;;1.08;0.38;;;23.00;54.10;;;;;;5092511;28;20028;-81
2022/08/06 11:22:57;;;;;;;2.33;0.30;;;23.20;54.50;;;;;;5077803;28;20036;-77
2022/08/06 11:25:38;;;;;;;1.40;0.30;;;23.30;54.00;;;;;;5072216;28;20024;-76
2022/08/06 11:28:04;;;;;;;0.98;0.30;;;23.40;53.90;;;;;;5078630;28;20016;-78
2022/08/06 11:31:07;;;;;;;5.35;0.70;;;23.40;53.50;;;;;;5090726;28;20031;-78
2022/08/06 11:33:32;;;;;;;12.65;8.27;;;23.50;55.70;;;;;;5089882;28;20031;-75
2022/08/06 11:35:59;;;;;;;2.72;1.10;;;23.50;54.80;;;;;;5091447;28;20024;-77
2022/08/06 11:38:46;;;;;;;0.93;0.50;;;23.60;54.00;;;;;;5092497;28;20753;-78
2022/08/06 11:41:28;;;;;;;2.30;0.50;;;23.70;53.00;;;;;;5091671;28;20036;-80
2022/08/06 11:43:54;;;;;;;0.70;0.30;;;23.70;52.70;;;;;;5079288;28;20028;-79
2022/08/06 11:46:27;;;;;;;1.30;0.55;;;23.70;52.90;;;;;;5093074;28;20020;-80
2022/08/06 11:48:59;;;;;;;1.20;0.40;;;23.80;52.10;;;;;;5091979;28;20028;-80
2022/08/06 11:51:41;;;;;;;0.63;0.40;;;23.80;51.80;;;;;;5073505;28;20771;-79
2022/08/06 11:54:55;;;;;;;1.30;0.50;;;23.80;51.40;;;;;;5091737;28;20392;-83
2022/08/06 11:57:23;;;;;;;4.10;0.50;;;23.80;51.40;;;;;;5000926;28;20471;-80
2022/08/06 11:59:54;;;;;;;0.93;0.32;;;24.00;51.60;;;;;;5011652;28;20157;-79
2022/08/06 12:02:41;;;;;;;0.45;0.28;;;24.00;51.00;;;;;;5010645;28;20506;-80
2022/08/06 12:05:27;;;;;;;0.68;0.40;;;24.00;51.20;;;;;;4995471;28;20511;-84
2022/08/06 12:08:31;;;;;;;2.40;0.40;;;24.10;52.10;;;;;;5011717;28;20026;-79
2022/08/06 12:11:32;;;;;;;0.73;0.40;;;24.10;51.80;;;;;;4937263;28;20032;-80
2022/08/06 12:13:59;;;;;;;0.50;0.40;;;24.10;51.10;;;;;;4861465;29;20116;-80
2022/08/06 12:16:32;;;;;;;2.10;0.32;;;24.20;51.40;;;;;;4922252;29;20048;-80
2022/08/06 12:18:58;;;;;;;0.60;0.40;;;24.30;51.50;;;;;;4937699;29;20023;-79
2022/08/06 12:21:24;;;;;;;2.08;0.50;;;24.40;51.90;;;;;;4938860;29;20039;-82
2022/08/06 12:23:51;;;;;;;1.58;0.50;;;24.50;51.10;;;;;;4941439;29;20039;-80
2022/08/06 12:26:18;;;;;;;0.68;0.50;;;24.60;50.80;;;;;;4940455;29;20470;-80
2022/08/06 12:28:44;;;;;;;1.25;0.30;;;24.60;50.10;;;;;;4984676;28;20030;-83
2022/08/06 12:31:10;;;;;;;0.63;0.40;;;24.60;51.10;;;;;;5014720;28;20056;-89
2022/08/06 12:33:42;;;;;;;1.67;0.60;;;24.60;50.30;;;;;;4998754;28;20577;-85
2022/08/06 12:36:08;;;;;;;1.73;0.30;;;24.70;50.80;;;;;;5027132;28;20560;-89
2022/08/06 12:38:34;;;;;;;2.78;0.40;;;24.70;50.90;;;;;;5018191;28;20033;-84
2022/08/06 12:41:09;;;;;;;0.65;0.30;;;24.80;50.40;;;;;;5028566;28;20033;-84
2022/08/06 12:43:36;;;;;;;1.92;0.30;;;24.90;49.70;;;;;;5076917;28;20067;-84
2022/08/06 12:46:07;;;;;;;2.75;0.45;;;24.90;49.90;;;;;;5083149;28;20027;-85
2022/08/06 12:48:34;;;;;;;;;;;25.00;50.30;;;;;;5084742;28;20043;-85
2022/08/06 12:51:13;;;;;;;10.73;0.60;;;25.10;49.60;;;;;;5075270;28;19904;-84
2022/08/06 12:53:58;;;;;;;2.70;0.50;;;25.20;49.90;;;;;;5074689;28;20044;-82
2022/08/06 12:56:25;;;;;;;1.30;0.30;;;25.20;50.10;;;;;;5074888;28;20381;-84
2022/08/06 12:58:52;;;;;;;2.03;0.50;;;25.20;49.20;;;;;;5075991;28;20028;-81
2022/08/06 13:01:24;;;;;;;0.38;0.20;;;25.30;49.00;;;;;;5092765;28;20028;-81
2022/08/06 13:03:53;;;;;;;0.80;0.35;;;25.30;48.80;;;;;;5095867;28;20105;-82
2022/08/06 13:06:22;;;;;;;1.73;0.40;;;25.40;49.00;;;;;;5095352;28;20078;-83
2022/08/06 13:08:49;;;;;;;3.10;0.32;;;25.50;48.30;;;;;;5095730;28;20431;-83
2022/08/06 13:11:15;;;;;;;1.25;0.38;;;25.60;48.20;;;;;;5094498;28;20049;-84